Aérodrome :
LOGIN :

S'inscrire | Disclaimer

   EN    FR    IT 

 










Légende :    VFR   VFR Marginal   IFR   IFR Intensif   IFR Très Intensif
Visi : 
Plafond : 
>= 8 km
>= 3000ft
5 à 8 km
1000 à 3000 ft
1500m à 5 km
500 à 1000 ft
800 à 1500m
200 à 500 ft
< 800m
< 200 ft
Symboles :   Orages  Brouillard  Fortes neiges  Fortes précipitations  Vent > 20 kt
SIGMETs :   Divers  Orages  Givrage  Turbulence  Onde Orograph.  Cendres Volcan.






- Altitude de l'aérodrome : 42 ft
- Code IATA : KGD


UMKK - Khrabrava - Kaliningrad

DERNIER METAR :
  • 250600Z 25003MPS 220V280 9999 BKN009 BKN016 12/10 Q1021 R24/CLRD95 NOSIG RMK QFE764/1019

METARs EXPIRÉS :
  • 250530Z 24002MPS 210V270 9999 SCT024 11/10 Q1020 R24/CLRD95 NOSIG RMK QFE764/1019
  • 250500Z 26002MPS 9999 SCT017 11/10 Q1020 R24/CLRD95 NOSIG RMK QFE764/1019
  • 250430Z 24002MPS 9999 SCT017 11/10 Q1020 R24/CLRD95 NOSIG RMK QFE764/1019
  • 250400Z 23002MPS 9999 SCT016 10/09 Q1020 R24/CLRD95 NOSIG RMK QFE764/1018
  • 250330Z 22003MPS 9999 FEW020 10/09 Q1019 R24/95D NOSIG RMK QFE763/1018

TAF TAF UMKK
Valide du 25 à 06h jusqu'au 26 à 06h UTC


250443Z 2506/2606 33005G11MPS 8000 SCT011 SCT020CB
TEMPO 2506/2516 VRB11MPS 1100 TSRAGS BR BKN003 BKN016CB
TEMPO 2516/2519 02007MPS
TEMPO 2519/2606 0300 FG BKN002
BECMG 2522/2524 01003G08MPS



MET'MAP, la Météo Aéronautique d'un coup d'oeil ! - Copyright ORBIFLY Décembre 2007 - Disclaimer

ORBIFLY MET'MAP TEAM :

Programmation & Développement : Alexandra Zaïnal
Sur une idée originale de : Baudouin d'Aumeries
Assistance à la programmation : Marc-Olivier Méhu
Soutien technique & logistique : Manuel Goepfert

Contact : metmap@orbifly.com




SOURCES & CREDITS :

   NOAA